sensor_id;sensor_type;location;lat;lon;timestamp;P1;durP1;ratioP1;P2;durP2;ratioP2
21120;SDS011;12519;43.318;21.898;2023-03-16T00:01:02;2.0;;;2.0;;
21120;SDS011;12519;43.318;21.898;2023-03-16T00:05:42;2.0;;;2.0;;
21120;SDS011;12519;43.318;21.898;2023-03-16T00:10:18;3.0;;;2.0;;
21120;SDS011;12519;43.318;21.898;2023-03-16T00:14:54;3.0;;;2.0;;
21120;SDS011;12519;43.318;21.898;2023-03-16T00:19:30;3.0;;;2.0;;
21120;SDS011;12519;43.318;21.898;2023-03-16T00:24:06;3.0;;;2.0;;
21120;SDS011;12519;43.318;21.898;2023-03-16T00:28:43;3.0;;;2.0;;
21120;SDS011;12519;43.318;21.898;2023-03-16T00:33:19;3.0;;;3.0;;
21120;SDS011;12519;43.318;21.898;2023-03-16T00:37:55;3.0;;;3.0;;
21120;SDS011;12519;43.318;21.898;2023-03-16T00:42:32;3.0;;;3.0;;
21120;SDS011;12519;43.318;21.898;2023-03-16T00:47:08;3.0;;;3.0;;
21120;SDS011;12519;43.318;21.898;2023-03-16T00:51:48;3.0;;;3.0;;
21120;SDS011;12519;43.318;21.898;2023-03-16T00:56:24;3.0;;;3.0;;
21120;SDS011;12519;43.318;21.898;2023-03-16T01:01:01;3.0;;;3.0;;
21120;SDS011;12519;43.318;21.898;2023-03-16T01:05:39;3.0;;;3.0;;
21120;SDS011;12519;43.318;21.898;2023-03-16T01:10:16;3.0;;;3.0;;
21120;SDS011;12519;43.318;21.898;2023-03-16T01:14:53;3.0;;;3.0;;
21120;SDS011;12519;43.318;21.898;2023-03-16T01:19:29;3.0;;;3.0;;
21120;SDS011;12519;43.318;21.898;2023-03-16T01:24:05;4.0;;;3.0;;
21120;SDS011;12519;43.318;21.898;2023-03-16T01:28:43;4.0;;;3.0;;
21120;SDS011;12519;43.318;21.898;2023-03-16T01:33:20;4.0;;;3.0;;
21120;SDS011;12519;43.318;21.898;2023-03-16T01:37:59;4.0;;;3.0;;
21120;SDS011;12519;43.318;21.898;2023-03-16T01:42:40;4.0;;;4.0;;
21120;SDS011;12519;43.318;21.898;2023-03-16T01:47:24;4.0;;;4.0;;
21120;SDS011;12519;43.318;21.898;2023-03-16T01:52:01;4.0;;;4.0;;
21120;SDS011;12519;43.318;21.898;2023-03-16T01:56:55;4.0;;;4.0;;
21120;SDS011;12519;43.318;21.898;2023-03-16T02:01:48;4.0;;;4.0;;
21120;SDS011;12519;43.318;21.898;2023-03-16T02:06:27;4.0;;;4.0;;
21120;SDS011;12519;43.318;21.898;2023-03-16T02:11:05;3.0;;;3.0;;
21120;SDS011;12519;43.318;21.898;2023-03-16T02:15:44;3.0;;;3.0;;
21120;SDS011;12519;43.318;21.898;2023-03-16T02:20:24;3.0;;;3.0;;
21120;SDS011;12519;43.318;21.898;2023-03-16T02:25:28;3.0;;;3.0;;
21120;SDS011;12519;43.318;21.898;2023-03-16T02:30:31;3.0;;;3.0;;
21120;SDS011;12519;43.318;21.898;2023-03-16T02:35:08;3.0;;;3.0;;
21120;SDS011;12519;43.318;21.898;2023-03-16T02:39:46;3.0;;;3.0;;
21120;SDS011;12519;43.318;21.898;2023-03-16T02:44:24;3.0;;;2.0;;
21120;SDS011;12519;43.318;21.898;2023-03-16T02:49:11;3.0;;;2.0;;
21120;SDS011;12519;43.318;21.898;2023-03-16T02:54:00;3.0;;;2.0;;
21120;SDS011;12519;43.318;21.898;2023-03-16T02:58:36;3.0;;;2.0;;
21120;SDS011;12519;43.318;21.898;2023-03-16T03:03:12;3.0;;;2.0;;
21120;SDS011;12519;43.318;21.898;2023-03-16T03:07:48;3.0;;;2.0;;
21120;SDS011;12519;43.318;21.898;2023-03-16T03:12:25;3.0;;;3.0;;
21120;SDS011;12519;43.318;21.898;2023-03-16T03:17:01;3.0;;;3.0;;
21120;SDS011;12519;43.318;21.898;2023-03-16T03:21:38;4.0;;;4.0;;
21120;SDS011;12519;43.318;21.898;2023-03-16T03:26:16;4.0;;;4.0;;
21120;SDS011;12519;43.318;21.898;2023-03-16T03:30:53;4.0;;;4.0;;
21120;SDS011;12519;43.318;21.898;2023-03-16T03:35:31;4.0;;;4.0;;
21120;SDS011;12519;43.318;21.898;2023-03-16T03:40:08;4.0;;;4.0;;
21120;SDS011;12519;43.318;21.898;2023-03-16T03:44:51;4.0;;;4.0;;
21120;SDS011;12519;43.318;21.898;2023-03-16T03:49:28;4.0;;;4.0;;
21120;SDS011;12519;43.318;21.898;2023-03-16T03:54:04;3.0;;;3.0;;
21120;SDS011;12519;43.318;21.898;2023-03-16T03:58:41;3.0;;;3.0;;
21120;SDS011;12519;43.318;21.898;2023-03-16T04:03:17;4.0;;;2.0;;
21120;SDS011;12519;43.318;21.898;2023-03-16T04:07:53;4.0;;;2.0;;
21120;SDS011;12519;43.318;21.898;2023-03-16T04:12:31;4.0;;;2.0;;
21120;SDS011;12519;43.318;21.898;2023-03-16T04:17:07;4.0;;;2.0;;
21120;SDS011;12519;43.318;21.898;2023-03-16T04:21:43;4.0;;;2.0;;
21120;SDS011;12519;43.318;21.898;2023-03-16T04:26:20;4.0;;;2.0;;
21120;SDS011;12519;43.318;21.898;2023-03-16T04:31:00;3.0;;;3.0;;
21120;SDS011;12519;43.318;21.898;2023-03-16T04:35:40;3.0;;;3.0;;
21120;SDS011;12519;43.318;21.898;2023-03-16T04:40:16;3.0;;;3.0;;
21120;SDS011;12519;43.318;21.898;2023-03-16T04:44:52;3.0;;;3.0;;
21120;SDS011;12519;43.318;21.898;2023-03-16T04:49:29;3.0;;;3.0;;
21120;SDS011;12519;43.318;21.898;2023-03-16T04:54:05;3.0;;;3.0;;
21120;SDS011;12519;43.318;21.898;2023-03-16T04:58:41;3.0;;;3.0;;
21120;SDS011;12519;43.318;21.898;2023-03-16T05:03:17;4.0;;;3.0;;
21120;SDS011;12519;43.318;21.898;2023-03-16T05:07:54;4.0;;;3.0;;
21120;SDS011;12519;43.318;21.898;2023-03-16T05:12:30;5.0;;;3.0;;
21120;SDS011;12519;43.318;21.898;2023-03-16T05:17:07;5.0;;;3.0;;
21120;SDS011;12519;43.318;21.898;2023-03-16T05:21:43;4.0;;;3.0;;
21120;SDS011;12519;43.318;21.898;2023-03-16T05:26:20;4.0;;;3.0;;
21120;SDS011;12519;43.318;21.898;2023-03-16T05:30:56;3.0;;;3.0;;
21120;SDS011;12519;43.318;21.898;2023-03-16T05:35:32;3.0;;;3.0;;
21120;SDS011;12519;43.318;21.898;2023-03-16T05:40:10;3.0;;;3.0;;
21120;SDS011;12519;43.318;21.898;2023-03-16T05:44:51;4.0;;;4.0;;
21120;SDS011;12519;43.318;21.898;2023-03-16T05:49:27;4.0;;;4.0;;
21120;SDS011;12519;43.318;21.898;2023-03-16T05:54:04;5.0;;;5.0;;
21120;SDS011;12519;43.318;21.898;2023-03-16T05:58:40;5.0;;;5.0;;
21120;SDS011;12519;43.318;21.898;2023-03-16T06:03:16;4.0;;;4.0;;
21120;SDS011;12519;43.318;21.898;2023-03-16T06:07:52;4.0;;;4.0;;
21120;SDS011;12519;43.318;21.898;2023-03-16T06:12:29;4.0;;;4.0;;
21120;SDS011;12519;43.318;21.898;2023-03-16T06:17:07;4.0;;;4.0;;
21120;SDS011;12519;43.318;21.898;2023-03-16T06:21:43;4.0;;;4.0;;
21120;SDS011;12519;43.318;21.898;2023-03-16T06:26:19;4.0;;;4.0;;
21120;SDS011;12519;43.318;21.898;2023-03-16T06:30:56;4.0;;;4.0;;
21120;SDS011;12519;43.318;21.898;2023-03-16T06:35:33;4.0;;;4.0;;
21120;SDS011;12519;43.318;21.898;2023-03-16T06:40:10;4.0;;;4.0;;
21120;SDS011;12519;43.318;21.898;2023-03-16T06:44:47;5.0;;;4.0;;
21120;SDS011;12519;43.318;21.898;2023-03-16T06:49:23;5.0;;;4.0;;
21120;SDS011;12519;43.318;21.898;2023-03-16T06:54:00;6.0;;;5.0;;
21120;SDS011;12519;43.318;21.898;2023-03-16T06:58:36;6.0;;;5.0;;
21120;SDS011;12519;43.318;21.898;2023-03-16T07:03:12;6.0;;;5.0;;
21120;SDS011;12519;43.318;21.898;2023-03-16T07:07:49;6.0;;;5.0;;
21120;SDS011;12519;43.318;21.898;2023-03-16T07:12:25;6.0;;;5.0;;
21120;SDS011;12519;43.318;21.898;2023-03-16T07:17:01;6.0;;;5.0;;
21120;SDS011;12519;43.318;21.898;2023-03-16T07:21:38;18.0;;;16.0;;
21120;SDS011;12519;43.318;21.898;2023-03-16T07:26:15;18.0;;;16.0;;
21120;SDS011;12519;43.318;21.898;2023-03-16T07:30:52;30.0;;;26.0;;
21120;SDS011;12519;43.318;21.898;2023-03-16T07:35:29;30.0;;;26.0;;
21120;SDS011;12519;43.318;21.898;2023-03-16T07:40:07;30.0;;;26.0;;
21120;SDS011;12519;43.318;21.898;2023-03-16T07:44:49;18.0;;;16.0;;
21120;SDS011;12519;43.318;21.898;2023-03-16T07:49:25;18.0;;;16.0;;
21120;SDS011;12519;43.318;21.898;2023-03-16T07:54:02;5.0;;;5.0;;
21120;SDS011;12519;43.318;21.898;2023-03-16T07:58:38;5.0;;;5.0;;
21120;SDS011;12519;43.318;21.898;2023-03-16T08:03:15;7.0;;;6.0;;
21120;SDS011;12519;43.318;21.898;2023-03-16T08:07:51;7.0;;;6.0;;
21120;SDS011;12519;43.318;21.898;2023-03-16T08:12:28;9.0;;;8.0;;
21120;SDS011;12519;43.318;21.898;2023-03-16T08:17:04;9.0;;;8.0;;
21120;SDS011;12519;43.318;21.898;2023-03-16T08:21:41;12.0;;;10.0;;
21120;SDS011;12519;43.318;21.898;2023-03-16T08:26:18;12.0;;;10.0;;
21120;SDS011;12519;43.318;21.898;2023-03-16T08:30:58;14.0;;;13.0;;
21120;SDS011;12519;43.318;21.898;2023-03-16T08:35:34;14.0;;;13.0;;
21120;SDS011;12519;43.318;21.898;2023-03-16T08:40:11;14.0;;;13.0;;
21120;SDS011;12519;43.318;21.898;2023-03-16T08:44:48;10.0;;;10.0;;
21120;SDS011;12519;43.318;21.898;2023-03-16T08:49:24;10.0;;;10.0;;
21120;SDS011;12519;43.318;21.898;2023-03-16T08:54:00;7.0;;;7.0;;
21120;SDS011;12519;43.318;21.898;2023-03-16T08:58:38;7.0;;;7.0;;
21120;SDS011;12519;43.318;21.898;2023-03-16T09:03:17;8.0;;;8.0;;
21120;SDS011;12519;43.318;21.898;2023-03-16T09:07:53;8.0;;;8.0;;
21120;SDS011;12519;43.318;21.898;2023-03-16T09:12:29;8.0;;;8.0;;
21120;SDS011;12519;43.318;21.898;2023-03-16T09:17:08;8.0;;;8.0;;
21120;SDS011;12519;43.318;21.898;2023-03-16T09:21:45;9.0;;;8.0;;
21120;SDS011;12519;43.318;21.898;2023-03-16T09:26:21;9.0;;;8.0;;
21120;SDS011;12519;43.318;21.898;2023-03-16T09:30:57;10.0;;;9.0;;
21120;SDS011;12519;43.318;21.898;2023-03-16T09:35:34;10.0;;;9.0;;
21120;SDS011;12519;43.318;21.898;2023-03-16T09:40:13;10.0;;;9.0;;
21120;SDS011;12519;43.318;21.898;2023-03-16T09:45:05;10.0;;;10.0;;
21120;SDS011;12519;43.318;21.898;2023-03-16T09:50:12;10.0;;;10.0;;
21120;SDS011;12519;43.318;21.898;2023-03-16T09:55:06;11.0;;;11.0;;
21120;SDS011;12519;43.318;21.898;2023-03-16T10:00:13;11.0;;;11.0;;
21120;SDS011;12519;43.318;21.898;2023-03-16T10:05:03;14.0;;;10.0;;
21120;SDS011;12519;43.318;21.898;2023-03-16T10:09:51;14.0;;;10.0;;
21120;SDS011;12519;43.318;21.898;2023-03-16T10:14:57;16.0;;;9.0;;
21120;SDS011;12519;43.318;21.898;2023-03-16T10:19:52;16.0;;;9.0;;
21120;SDS011;12519;43.318;21.898;2023-03-16T10:24:40;14.0;;;10.0;;
21120;SDS011;12519;43.318;21.898;2023-03-16T10:29:38;14.0;;;10.0;;
21120;SDS011;12519;43.318;21.898;2023-03-16T10:34:15;13.0;;;10.0;;
21120;SDS011;12519;43.318;21.898;2023-03-16T10:38:52;13.0;;;10.0;;
21120;SDS011;12519;43.318;21.898;2023-03-16T10:43:37;12.0;;;10.0;;
21120;SDS011;12519;43.318;21.898;2023-03-16T10:48:15;12.0;;;10.0;;
21120;SDS011;12519;43.318;21.898;2023-03-16T10:52:55;10.0;;;9.0;;
21120;SDS011;12519;43.318;21.898;2023-03-16T10:57:33;10.0;;;9.0;;
21120;SDS011;12519;43.318;21.898;2023-03-16T11:02:23;10.0;;;9.0;;
21120;SDS011;12519;43.318;21.898;2023-03-16T11:07:14;10.0;;;9.0;;
21120;SDS011;12519;43.318;21.898;2023-03-16T11:11:56;10.0;;;9.0;;
21120;SDS011;12519;43.318;21.898;2023-03-16T11:16:36;10.0;;;9.0;;
21120;SDS011;12519;43.318;21.898;2023-03-16T11:21:36;13.0;;;10.0;;
21120;SDS011;12519;43.318;21.898;2023-03-16T11:26:34;13.0;;;10.0;;
21120;SDS011;12519;43.318;21.898;2023-03-16T11:31:17;16.0;;;12.0;;
21120;SDS011;12519;43.318;21.898;2023-03-16T11:36:19;16.0;;;12.0;;
21120;SDS011;12519;43.318;21.898;2023-03-16T11:41:29;16.0;;;14.0;;
21120;SDS011;12519;43.318;21.898;2023-03-16T11:46:32;16.0;;;14.0;;
21120;SDS011;12519;43.318;21.898;2023-03-16T11:51:34;17.0;;;16.0;;
21120;SDS011;12519;43.318;21.898;2023-03-16T11:56:29;17.0;;;16.0;;
21120;SDS011;12519;43.318;21.898;2023-03-16T12:01:14;17.0;;;16.0;;
21120;SDS011;12519;43.318;21.898;2023-03-16T12:06:04;18.0;;;14.0;;
21120;SDS011;12519;43.318;21.898;2023-03-16T12:11:08;18.0;;;14.0;;
21120;SDS011;12519;43.318;21.898;2023-03-16T12:15:59;19.0;;;13.0;;
21120;SDS011;12519;43.318;21.898;2023-03-16T12:20:56;19.0;;;13.0;;
21120;SDS011;12519;43.318;21.898;2023-03-16T12:25:44;16.0;;;12.0;;
21120;SDS011;12519;43.318;21.898;2023-03-16T12:30:31;16.0;;;12.0;;
21120;SDS011;12519;43.318;21.898;2023-03-16T12:35:41;12.0;;;11.0;;
21120;SDS011;12519;43.318;21.898;2023-03-16T12:40:42;12.0;;;11.0;;
21120;SDS011;12519;43.318;21.898;2023-03-16T12:45:55;12.0;;;10.0;;
21120;SDS011;12519;43.318;21.898;2023-03-16T12:50:52;12.0;;;10.0;;
21120;SDS011;12519;43.318;21.898;2023-03-16T12:55:38;12.0;;;10.0;;
21120;SDS011;12519;43.318;21.898;2023-03-16T13:00:19;12.0;;;10.0;;
21120;SDS011;12519;43.318;21.898;2023-03-16T13:05:13;12.0;;;10.0;;
21120;SDS011;12519;43.318;21.898;2023-03-16T13:10:08;12.0;;;10.0;;
21120;SDS011;12519;43.318;21.898;2023-03-16T13:14:51;11.0;;;10.0;;
21120;SDS011;12519;43.318;21.898;2023-03-16T13:19:29;11.0;;;10.0;;
21120;SDS011;12519;43.318;21.898;2023-03-16T13:24:12;12.0;;;11.0;;
21120;SDS011;12519;43.318;21.898;2023-03-16T13:29:22;12.0;;;11.0;;
21120;SDS011;12519;43.318;21.898;2023-03-16T13:34:04;13.0;;;12.0;;
21120;SDS011;12519;43.318;21.898;2023-03-16T13:39:01;13.0;;;12.0;;
21120;SDS011;12519;43.318;21.898;2023-03-16T13:43:54;13.0;;;12.0;;
21120;SDS011;12519;43.318;21.898;2023-03-16T13:48:35;13.0;;;12.0;;
21120;SDS011;12519;43.318;21.898;2023-03-16T14:02:44;20.0;;;13.0;;
21120;SDS011;12519;43.318;21.898;2023-03-16T14:07:21;20.0;;;13.0;;
21120;SDS011;12519;43.318;21.898;2023-03-16T14:11:58;20.0;;;13.0;;
21120;SDS011;12519;43.318;21.898;2023-03-16T14:16:34;20.0;;;13.0;;
21120;SDS011;12519;43.318;21.898;2023-03-16T14:21:20;20.0;;;13.0;;
21120;SDS011;12519;43.318;21.898;2023-03-16T14:25:58;18.0;;;14.0;;
21120;SDS011;12519;43.318;21.898;2023-03-16T14:30:34;18.0;;;14.0;;
21120;SDS011;12519;43.318;21.898;2023-03-16T14:35:18;16.0;;;15.0;;
21120;SDS011;12519;43.318;21.898;2023-03-16T14:40:01;16.0;;;15.0;;
21120;SDS011;12519;43.318;21.898;2023-03-16T14:44:39;12.0;;;12.0;;
21120;SDS011;12519;43.318;21.898;2023-03-16T14:49:26;12.0;;;12.0;;
21120;SDS011;12519;43.318;21.898;2023-03-16T14:54:13;9.0;;;9.0;;
21120;SDS011;12519;43.318;21.898;2023-03-16T14:58:50;9.0;;;9.0;;
21120;SDS011;12519;43.318;21.898;2023-03-16T15:03:34;10.0;;;9.0;;
21120;SDS011;12519;43.318;21.898;2023-03-16T15:08:18;10.0;;;9.0;;
21120;SDS011;12519;43.318;21.898;2023-03-16T15:13:14;12.0;;;9.0;;
21120;SDS011;12519;43.318;21.898;2023-03-16T15:17:55;12.0;;;9.0;;
21120;SDS011;12519;43.318;21.898;2023-03-16T15:22:37;11.0;;;9.0;;
21120;SDS011;12519;43.318;21.898;2023-03-16T15:27:22;11.0;;;9.0;;
21120;SDS011;12519;43.318;21.898;2023-03-16T15:32:12;10.0;;;9.0;;
21120;SDS011;12519;43.318;21.898;2023-03-16T15:36:49;10.0;;;9.0;;
21120;SDS011;12519;43.318;21.898;2023-03-16T15:41:26;10.0;;;9.0;;
21120;SDS011;12519;43.318;21.898;2023-03-16T15:46:03;10.0;;;8.0;;
21120;SDS011;12519;43.318;21.898;2023-03-16T15:50:51;10.0;;;8.0;;
21120;SDS011;12519;43.318;21.898;2023-03-16T15:55:36;11.0;;;8.0;;
21120;SDS011;12519;43.318;21.898;2023-03-16T16:00:28;11.0;;;8.0;;
21120;SDS011;12519;43.318;21.898;2023-03-16T16:05:09;10.0;;;8.0;;
21120;SDS011;12519;43.318;21.898;2023-03-16T16:09:45;10.0;;;8.0;;
21120;SDS011;12519;43.318;21.898;2023-03-16T16:14:24;9.0;;;8.0;;
21120;SDS011;12519;43.318;21.898;2023-03-16T16:19:01;9.0;;;8.0;;
21120;SDS011;12519;43.318;21.898;2023-03-16T16:23:37;10.0;;;9.0;;
21120;SDS011;12519;43.318;21.898;2023-03-16T16:28:16;10.0;;;9.0;;
21120;SDS011;12519;43.318;21.898;2023-03-16T16:32:57;10.0;;;10.0;;
21120;SDS011;12519;43.318;21.898;2023-03-16T16:37:34;10.0;;;10.0;;
21120;SDS011;12519;43.318;21.898;2023-03-16T16:42:15;14.0;;;12.0;;
21120;SDS011;12519;43.318;21.898;2023-03-16T16:46:53;14.0;;;12.0;;
21120;SDS011;12519;43.318;21.898;2023-03-16T16:51:30;14.0;;;12.0;;
21120;SDS011;12519;43.318;21.898;2023-03-16T16:56:11;19.0;;;15.0;;
21120;SDS011;12519;43.318;21.898;2023-03-16T17:00:56;19.0;;;15.0;;
21120;SDS011;12519;43.318;21.898;2023-03-16T17:05:32;14.0;;;12.0;;
21120;SDS011;12519;43.318;21.898;2023-03-16T17:10:13;14.0;;;12.0;;
21120;SDS011;12519;43.318;21.898;2023-03-16T17:14:54;9.0;;;8.0;;
21120;SDS011;12519;43.318;21.898;2023-03-16T17:19:30;9.0;;;8.0;;
21120;SDS011;12519;43.318;21.898;2023-03-16T17:24:06;12.0;;;10.0;;
21120;SDS011;12519;43.318;21.898;2023-03-16T17:28:47;12.0;;;10.0;;
21120;SDS011;12519;43.318;21.898;2023-03-16T17:33:30;15.0;;;13.0;;
21120;SDS011;12519;43.318;21.898;2023-03-16T17:38:16;15.0;;;13.0;;
21120;SDS011;12519;43.318;21.898;2023-03-16T17:42:56;14.0;;;12.0;;
21120;SDS011;12519;43.318;21.898;2023-03-16T17:47:32;14.0;;;12.0;;
21120;SDS011;12519;43.318;21.898;2023-03-16T17:52:12;14.0;;;11.0;;
21120;SDS011;12519;43.318;21.898;2023-03-16T17:56:53;14.0;;;11.0;;
21120;SDS011;12519;43.318;21.898;2023-03-16T18:01:31;14.0;;;11.0;;
21120;SDS011;12519;43.318;21.898;2023-03-16T18:06:18;11.0;;;10.0;;
21120;SDS011;12519;43.318;21.898;2023-03-16T18:11:06;11.0;;;10.0;;
21120;SDS011;12519;43.318;21.898;2023-03-16T18:15:56;8.0;;;8.0;;
21120;SDS011;12519;43.318;21.898;2023-03-16T18:20:34;8.0;;;8.0;;
21120;SDS011;12519;43.318;21.898;2023-03-16T18:25:28;10.0;;;9.0;;
21120;SDS011;12519;43.318;21.898;2023-03-16T18:30:13;10.0;;;9.0;;
21120;SDS011;12519;43.318;21.898;2023-03-16T18:34:52;11.0;;;10.0;;
21120;SDS011;12519;43.318;21.898;2023-03-16T18:39:31;11.0;;;10.0;;
21120;SDS011;12519;43.318;21.898;2023-03-16T18:44:17;15.0;;;12.0;;
21120;SDS011;12519;43.318;21.898;2023-03-16T18:49:01;15.0;;;12.0;;
21120;SDS011;12519;43.318;21.898;2023-03-16T18:53:47;19.0;;;13.0;;
21120;SDS011;12519;43.318;21.898;2023-03-16T18:58:24;19.0;;;13.0;;
21120;SDS011;12519;43.318;21.898;2023-03-16T19:03:01;15.0;;;11.0;;
21120;SDS011;12519;43.318;21.898;2023-03-16T19:07:41;15.0;;;11.0;;
21120;SDS011;12519;43.318;21.898;2023-03-16T19:12:21;11.0;;;9.0;;
21120;SDS011;12519;43.318;21.898;2023-03-16T19:16:58;11.0;;;9.0;;
21120;SDS011;12519;43.318;21.898;2023-03-16T19:21:34;11.0;;;9.0;;
21120;SDS011;12519;43.318;21.898;2023-03-16T19:26:12;11.0;;;10.0;;
21120;SDS011;12519;43.318;21.898;2023-03-16T19:30:48;11.0;;;10.0;;
21120;SDS011;12519;43.318;21.898;2023-03-16T19:35:27;11.0;;;11.0;;
21120;SDS011;12519;43.318;21.898;2023-03-16T19:40:05;11.0;;;11.0;;
21120;SDS011;12519;43.318;21.898;2023-03-16T19:44:42;12.0;;;11.0;;
21120;SDS011;12519;43.318;21.898;2023-03-16T19:49:24;12.0;;;11.0;;
21120;SDS011;12519;43.318;21.898;2023-03-16T19:54:02;13.0;;;11.0;;
21120;SDS011;12519;43.318;21.898;2023-03-16T19:58:39;13.0;;;11.0;;
21120;SDS011;12519;43.318;21.898;2023-03-16T20:03:19;12.0;;;10.0;;
21120;SDS011;12519;43.318;21.898;2023-03-16T20:07:57;12.0;;;10.0;;
21120;SDS011;12519;43.318;21.898;2023-03-16T20:12:39;12.0;;;10.0;;
21120;SDS011;12519;43.318;21.898;2023-03-16T20:17:21;12.0;;;10.0;;
21120;SDS011;12519;43.318;21.898;2023-03-16T20:22:00;12.0;;;10.0;;
21120;SDS011;12519;43.318;21.898;2023-03-16T20:26:36;10.0;;;9.0;;
21120;SDS011;12519;43.318;21.898;2023-03-16T20:31:18;10.0;;;9.0;;
21120;SDS011;12519;43.318;21.898;2023-03-16T20:36:00;9.0;;;8.0;;
21120;SDS011;12519;43.318;21.898;2023-03-16T20:40:38;9.0;;;8.0;;
21120;SDS011;12519;43.318;21.898;2023-03-16T20:45:21;12.0;;;11.0;;
21120;SDS011;12519;43.318;21.898;2023-03-16T20:50:08;12.0;;;11.0;;
21120;SDS011;12519;43.318;21.898;2023-03-16T20:54:59;16.0;;;14.0;;
21120;SDS011;12519;43.318;21.898;2023-03-16T20:59:35;16.0;;;14.0;;
21120;SDS011;12519;43.318;21.898;2023-03-16T21:04:19;16.0;;;13.0;;
21120;SDS011;12519;43.318;21.898;2023-03-16T21:09:00;16.0;;;13.0;;
21120;SDS011;12519;43.318;21.898;2023-03-16T21:13:36;15.0;;;12.0;;
21120;SDS011;12519;43.318;21.898;2023-03-16T21:18:18;15.0;;;12.0;;
21120;SDS011;12519;43.318;21.898;2023-03-16T21:22:56;15.0;;;12.0;;
21120;SDS011;12519;43.318;21.898;2023-03-16T21:27:34;15.0;;;12.0;;
21120;SDS011;12519;43.318;21.898;2023-03-16T21:32:19;15.0;;;12.0;;
21120;SDS011;12519;43.318;21.898;2023-03-16T21:37:00;15.0;;;13.0;;
21120;SDS011;12519;43.318;21.898;2023-03-16T21:41:36;15.0;;;13.0;;
21120;SDS011;12519;43.318;21.898;2023-03-16T21:46:16;16.0;;;12.0;;
21120;SDS011;12519;43.318;21.898;2023-03-16T21:50:56;16.0;;;12.0;;
21120;SDS011;12519;43.318;21.898;2023-03-16T21:55:32;16.0;;;12.0;;
21120;SDS011;12519;43.318;21.898;2023-03-16T22:00:16;16.0;;;12.0;;
21120;SDS011;12519;43.318;21.898;2023-03-16T22:04:58;14.0;;;12.0;;
21120;SDS011;12519;43.318;21.898;2023-03-16T22:09:34;14.0;;;12.0;;
21120;SDS011;12519;43.318;21.898;2023-03-16T22:14:10;13.0;;;11.0;;
21120;SDS011;12519;43.318;21.898;2023-03-16T22:18:49;13.0;;;11.0;;
21120;SDS011;12519;43.318;21.898;2023-03-16T22:23:31;12.0;;;11.0;;
21120;SDS011;12519;43.318;21.898;2023-03-16T22:28:10;12.0;;;11.0;;
21120;SDS011;12519;43.318;21.898;2023-03-16T22:32:50;12.0;;;11.0;;
21120;SDS011;12519;43.318;21.898;2023-03-16T22:37:30;12.0;;;11.0;;
21120;SDS011;12519;43.318;21.898;2023-03-16T22:42:24;12.0;;;11.0;;
21120;SDS011;12519;43.318;21.898;2023-03-16T22:47:15;12.0;;;10.0;;
21120;SDS011;12519;43.318;21.898;2023-03-16T22:51:57;12.0;;;10.0;;
21120;SDS011;12519;43.318;21.898;2023-03-16T22:56:34;11.0;;;9.0;;
21120;SDS011;12519;43.318;21.898;2023-03-16T23:01:16;11.0;;;9.0;;
21120;SDS011;12519;43.318;21.898;2023-03-16T23:05:55;10.0;;;9.0;;
21120;SDS011;12519;43.318;21.898;2023-03-16T23:10:31;10.0;;;9.0;;
21120;SDS011;12519;43.318;21.898;2023-03-16T23:15:15;10.0;;;9.0;;
21120;SDS011;12519;43.318;21.898;2023-03-16T23:19:56;10.0;;;9.0;;
21120;SDS011;12519;43.318;21.898;2023-03-16T23:24:33;11.0;;;10.0;;
21120;SDS011;12519;43.318;21.898;2023-03-16T23:29:10;11.0;;;10.0;;
21120;SDS011;12519;43.318;21.898;2023-03-16T23:33:46;12.0;;;11.0;;
21120;SDS011;12519;43.318;21.898;2023-03-16T23:38:23;12.0;;;11.0;;
21120;SDS011;12519;43.318;21.898;2023-03-16T23:42:59;12.0;;;12.0;;
21120;SDS011;12519;43.318;21.898;2023-03-16T23:47:36;12.0;;;12.0;;
21120;SDS011;12519;43.318;21.898;2023-03-16T23:52:12;12.0;;;12.0;;
21120;SDS011;12519;43.318;21.898;2023-03-16T23:56:49;13.0;;;12.0;;
